sensor_id;sensor_type;location;lat;lon;timestamp;P1;durP1;ratioP1;P2;durP2;ratioP2
13061;SDS011;6597;52.218;9.882;2023-11-18T00:00:42;22.67;;;14.93;;
13061;SDS011;6597;52.218;9.882;2023-11-18T00:03:09;18.87;;;15.33;;
13061;SDS011;6597;52.218;9.882;2023-11-18T00:05:36;24.63;;;14.60;;
13061;SDS011;6597;52.218;9.882;2023-11-18T00:08:02;25.23;;;15.13;;
13061;SDS011;6597;52.218;9.882;2023-11-18T00:10:29;20.53;;;14.50;;
13061;SDS011;6597;52.218;9.882;2023-11-18T00:12:56;22.07;;;14.90;;
13061;SDS011;6597;52.218;9.882;2023-11-18T00:15:22;19.90;;;15.23;;
13061;SDS011;6597;52.218;9.882;2023-11-18T00:17:50;23.63;;;16.33;;
13061;SDS011;6597;52.218;9.882;2023-11-18T00:20:17;22.77;;;16.20;;
13061;SDS011;6597;52.218;9.882;2023-11-18T00:22:45;24.37;;;15.97;;
13061;SDS011;6597;52.218;9.882;2023-11-18T00:25:12;23.20;;;15.93;;
13061;SDS011;6597;52.218;9.882;2023-11-18T00:27:39;21.83;;;15.67;;
13061;SDS011;6597;52.218;9.882;2023-11-18T00:30:06;24.57;;;16.17;;
13061;SDS011;6597;52.218;9.882;2023-11-18T00:32:36;20.90;;;15.37;;
13061;SDS011;6597;52.218;9.882;2023-11-18T00:35:04;21.47;;;15.57;;
13061;SDS011;6597;52.218;9.882;2023-11-18T00:37:31;22.73;;;16.33;;
13061;SDS011;6597;52.218;9.882;2023-11-18T00:39:58;23.13;;;16.47;;
13061;SDS011;6597;52.218;9.882;2023-11-18T00:42:24;25.63;;;16.83;;
13061;SDS011;6597;52.218;9.882;2023-11-18T00:44:51;28.47;;;16.83;;
13061;SDS011;6597;52.218;9.882;2023-11-18T00:47:18;22.10;;;17.10;;
13061;SDS011;6597;52.218;9.882;2023-11-18T00:49:44;27.00;;;17.63;;
13061;SDS011;6597;52.218;9.882;2023-11-18T00:52:12;27.93;;;19.07;;
13061;SDS011;6597;52.218;9.882;2023-11-18T00:54:38;26.23;;;18.83;;
13061;SDS011;6597;52.218;9.882;2023-11-18T00:57:05;29.23;;;20.10;;
13061;SDS011;6597;52.218;9.882;2023-11-18T00:59:32;25.20;;;19.47;;
13061;SDS011;6597;52.218;9.882;2023-11-18T01:01:58;25.27;;;18.10;;
13061;SDS011;6597;52.218;9.882;2023-11-18T01:04:24;29.00;;;18.43;;
13061;SDS011;6597;52.218;9.882;2023-11-18T01:06:51;28.83;;;19.00;;
13061;SDS011;6597;52.218;9.882;2023-11-18T01:09:19;26.07;;;17.13;;
13061;SDS011;6597;52.218;9.882;2023-11-18T01:11:46;25.30;;;17.43;;
13061;SDS011;6597;52.218;9.882;2023-11-18T01:14:12;22.30;;;16.53;;
13061;SDS011;6597;52.218;9.882;2023-11-18T01:16:39;25.33;;;18.17;;
13061;SDS011;6597;52.218;9.882;2023-11-18T01:19:05;27.27;;;17.90;;
13061;SDS011;6597;52.218;9.882;2023-11-18T01:21:34;24.20;;;17.53;;
13061;SDS011;6597;52.218;9.882;2023-11-18T01:24:01;26.90;;;18.33;;
13061;SDS011;6597;52.218;9.882;2023-11-18T01:26:29;30.50;;;18.23;;
13061;SDS011;6597;52.218;9.882;2023-11-18T01:28:55;25.97;;;18.93;;
13061;SDS011;6597;52.218;9.882;2023-11-18T01:31:22;26.03;;;18.00;;
13061;SDS011;6597;52.218;9.882;2023-11-18T01:33:48;31.57;;;19.67;;
13061;SDS011;6597;52.218;9.882;2023-11-18T01:36:15;28.00;;;20.60;;
13061;SDS011;6597;52.218;9.882;2023-11-18T01:38:43;27.37;;;20.57;;
13061;SDS011;6597;52.218;9.882;2023-11-18T01:41:10;27.40;;;20.00;;
13061;SDS011;6597;52.218;9.882;2023-11-18T01:43:38;26.77;;;19.53;;
13061;SDS011;6597;52.218;9.882;2023-11-18T01:46:07;28.10;;;21.17;;
13061;SDS011;6597;52.218;9.882;2023-11-18T01:48:38;25.97;;;19.60;;
13061;SDS011;6597;52.218;9.882;2023-11-18T01:51:07;29.00;;;20.73;;
13061;SDS011;6597;52.218;9.882;2023-11-18T01:53:36;28.23;;;19.83;;
13061;SDS011;6597;52.218;9.882;2023-11-18T01:56:03;29.83;;;21.27;;
13061;SDS011;6597;52.218;9.882;2023-11-18T01:58:31;29.50;;;20.87;;
13061;SDS011;6597;52.218;9.882;2023-11-18T02:01:02;31.07;;;20.63;;
13061;SDS011;6597;52.218;9.882;2023-11-18T02:03:32;34.97;;;21.07;;
13061;SDS011;6597;52.218;9.882;2023-11-18T02:05:59;26.90;;;19.57;;
13061;SDS011;6597;52.218;9.882;2023-11-18T02:08:25;28.07;;;20.83;;
13061;SDS011;6597;52.218;9.882;2023-11-18T02:10:54;28.70;;;21.47;;
13061;SDS011;6597;52.218;9.882;2023-11-18T02:13:24;29.73;;;22.47;;
13061;SDS011;6597;52.218;9.882;2023-11-18T02:15:56;35.63;;;22.07;;
13061;SDS011;6597;52.218;9.882;2023-11-18T02:18:25;29.53;;;21.80;;
13061;SDS011;6597;52.218;9.882;2023-11-18T02:20:53;31.63;;;23.23;;
13061;SDS011;6597;52.218;9.882;2023-11-18T02:23:22;34.30;;;22.37;;
13061;SDS011;6597;52.218;9.882;2023-11-18T02:25:50;30.23;;;23.17;;
13061;SDS011;6597;52.218;9.882;2023-11-18T02:28:16;26.63;;;21.23;;
13061;SDS011;6597;52.218;9.882;2023-11-18T02:30:43;30.70;;;21.70;;
13061;SDS011;6597;52.218;9.882;2023-11-18T02:33:11;27.07;;;21.23;;
13061;SDS011;6597;52.218;9.882;2023-11-18T02:35:45;30.93;;;22.27;;
13061;SDS011;6597;52.218;9.882;2023-11-18T02:38:18;32.53;;;22.67;;
13061;SDS011;6597;52.218;9.882;2023-11-18T02:40:51;30.50;;;22.47;;
13061;SDS011;6597;52.218;9.882;2023-11-18T02:43:22;30.57;;;22.43;;
13061;SDS011;6597;52.218;9.882;2023-11-18T02:45:51;30.40;;;22.10;;
13061;SDS011;6597;52.218;9.882;2023-11-18T02:48:20;31.17;;;22.47;;
13061;SDS011;6597;52.218;9.882;2023-11-18T02:50:46;35.03;;;23.60;;
13061;SDS011;6597;52.218;9.882;2023-11-18T02:53:13;38.23;;;23.80;;
13061;SDS011;6597;52.218;9.882;2023-11-18T02:55:39;33.10;;;23.40;;
13061;SDS011;6597;52.218;9.882;2023-11-18T02:58:08;31.03;;;23.07;;
13061;SDS011;6597;52.218;9.882;2023-11-18T03:00:34;33.80;;;24.43;;
13061;SDS011;6597;52.218;9.882;2023-11-18T03:03:03;33.47;;;23.63;;
13061;SDS011;6597;52.218;9.882;2023-11-18T03:05:30;32.60;;;21.43;;
13061;SDS011;6597;52.218;9.882;2023-11-18T03:07:57;35.83;;;22.50;;
13061;SDS011;6597;52.218;9.882;2023-11-18T03:10:23;30.17;;;22.93;;
13061;SDS011;6597;52.218;9.882;2023-11-18T03:12:51;33.17;;;22.00;;
13061;SDS011;6597;52.218;9.882;2023-11-18T03:15:20;39.03;;;22.70;;
13061;SDS011;6597;52.218;9.882;2023-11-18T03:17:47;33.20;;;21.77;;
13061;SDS011;6597;52.218;9.882;2023-11-18T03:20:15;31.73;;;21.97;;
13061;SDS011;6597;52.218;9.882;2023-11-18T03:22:42;31.50;;;22.77;;
13061;SDS011;6597;52.218;9.882;2023-11-18T03:25:10;43.83;;;23.77;;
13061;SDS011;6597;52.218;9.882;2023-11-18T03:27:36;30.37;;;22.17;;
13061;SDS011;6597;52.218;9.882;2023-11-18T03:30:03;34.43;;;21.63;;
13061;SDS011;6597;52.218;9.882;2023-11-18T03:32:33;41.37;;;23.33;;
13061;SDS011;6597;52.218;9.882;2023-11-18T03:35:00;33.23;;;23.30;;
13061;SDS011;6597;52.218;9.882;2023-11-18T03:37:26;32.47;;;22.30;;
13061;SDS011;6597;52.218;9.882;2023-11-18T03:39:53;36.20;;;23.73;;
13061;SDS011;6597;52.218;9.882;2023-11-18T03:42:20;37.20;;;23.20;;
13061;SDS011;6597;52.218;9.882;2023-11-18T03:44:48;33.53;;;22.23;;
13061;SDS011;6597;52.218;9.882;2023-11-18T03:47:15;35.33;;;22.23;;
13061;SDS011;6597;52.218;9.882;2023-11-18T03:49:43;38.37;;;23.13;;
13061;SDS011;6597;52.218;9.882;2023-11-18T03:52:09;33.47;;;22.93;;
13061;SDS011;6597;52.218;9.882;2023-11-18T03:54:37;38.47;;;23.60;;
13061;SDS011;6597;52.218;9.882;2023-11-18T03:57:04;33.60;;;22.83;;
13061;SDS011;6597;52.218;9.882;2023-11-18T03:59:30;36.10;;;22.80;;
13061;SDS011;6597;52.218;9.882;2023-11-18T04:01:57;36.93;;;22.70;;
13061;SDS011;6597;52.218;9.882;2023-11-18T04:04:24;34.40;;;22.77;;
13061;SDS011;6597;52.218;9.882;2023-11-18T04:06:52;34.17;;;22.20;;
13061;SDS011;6597;52.218;9.882;2023-11-18T04:09:18;48.80;;;23.87;;
13061;SDS011;6597;52.218;9.882;2023-11-18T04:11:45;40.93;;;24.97;;
13061;SDS011;6597;52.218;9.882;2023-11-18T04:14:11;43.47;;;24.47;;
13061;SDS011;6597;52.218;9.882;2023-11-18T04:16:38;45.77;;;25.40;;
13061;SDS011;6597;52.218;9.882;2023-11-18T04:19:04;39.80;;;24.33;;
13061;SDS011;6597;52.218;9.882;2023-11-18T04:21:31;36.90;;;23.70;;
13061;SDS011;6597;52.218;9.882;2023-11-18T04:23:59;42.03;;;23.60;;
13061;SDS011;6597;52.218;9.882;2023-11-18T04:26:26;35.20;;;23.50;;
13061;SDS011;6597;52.218;9.882;2023-11-18T04:28:52;37.83;;;23.40;;
13061;SDS011;6597;52.218;9.882;2023-11-18T04:31:19;42.87;;;24.80;;
13061;SDS011;6597;52.218;9.882;2023-11-18T04:33:46;43.50;;;23.87;;
13061;SDS011;6597;52.218;9.882;2023-11-18T04:36:13;37.60;;;23.90;;
13061;SDS011;6597;52.218;9.882;2023-11-18T04:38:41;42.63;;;24.43;;
13061;SDS011;6597;52.218;9.882;2023-11-18T04:41:10;34.17;;;22.60;;
13061;SDS011;6597;52.218;9.882;2023-11-18T04:43:37;36.07;;;22.87;;
13061;SDS011;6597;52.218;9.882;2023-11-18T04:46:07;40.10;;;23.40;;
13061;SDS011;6597;52.218;9.882;2023-11-18T04:48:35;38.70;;;24.43;;
13061;SDS011;6597;52.218;9.882;2023-11-18T04:51:02;45.83;;;25.70;;
13061;SDS011;6597;52.218;9.882;2023-11-18T04:53:29;39.73;;;24.20;;
13061;SDS011;6597;52.218;9.882;2023-11-18T04:55:56;42.17;;;24.40;;
13061;SDS011;6597;52.218;9.882;2023-11-18T04:58:25;41.77;;;24.63;;
13061;SDS011;6597;52.218;9.882;2023-11-18T05:00:51;44.27;;;24.53;;
13061;SDS011;6597;52.218;9.882;2023-11-18T05:03:18;44.60;;;25.53;;
13061;SDS011;6597;52.218;9.882;2023-11-18T05:05:44;41.80;;;25.13;;
13061;SDS011;6597;52.218;9.882;2023-11-18T05:08:17;42.33;;;24.33;;
13061;SDS011;6597;52.218;9.882;2023-11-18T05:10:46;45.43;;;25.77;;
13061;SDS011;6597;52.218;9.882;2023-11-18T05:13:13;42.33;;;27.17;;
13061;SDS011;6597;52.218;9.882;2023-11-18T05:15:42;48.13;;;25.80;;
13061;SDS011;6597;52.218;9.882;2023-11-18T05:18:11;43.13;;;25.67;;
13061;SDS011;6597;52.218;9.882;2023-11-18T05:20:39;45.37;;;24.67;;
13061;SDS011;6597;52.218;9.882;2023-11-18T05:23:06;48.67;;;25.87;;
13061;SDS011;6597;52.218;9.882;2023-11-18T05:25:35;48.87;;;27.30;;
13061;SDS011;6597;52.218;9.882;2023-11-18T05:28:01;46.63;;;26.10;;
13061;SDS011;6597;52.218;9.882;2023-11-18T05:30:28;46.43;;;26.23;;
13061;SDS011;6597;52.218;9.882;2023-11-18T05:32:57;40.67;;;26.20;;
13061;SDS011;6597;52.218;9.882;2023-11-18T05:35:24;41.13;;;25.33;;
13061;SDS011;6597;52.218;9.882;2023-11-18T05:37:53;49.13;;;25.90;;
13061;SDS011;6597;52.218;9.882;2023-11-18T05:40:20;41.60;;;24.57;;
13061;SDS011;6597;52.218;9.882;2023-11-18T05:42:48;46.00;;;26.47;;
13061;SDS011;6597;52.218;9.882;2023-11-18T05:45:17;47.20;;;27.90;;
13061;SDS011;6597;52.218;9.882;2023-11-18T05:47:53;50.10;;;27.47;;
13061;SDS011;6597;52.218;9.882;2023-11-18T05:50:21;44.37;;;26.13;;
13061;SDS011;6597;52.218;9.882;2023-11-18T05:52:49;46.27;;;27.57;;
13061;SDS011;6597;52.218;9.882;2023-11-18T05:55:16;48.23;;;27.60;;
13061;SDS011;6597;52.218;9.882;2023-11-18T05:57:43;40.83;;;25.00;;
13061;SDS011;6597;52.218;9.882;2023-11-18T06:00:10;41.07;;;25.87;;
13061;SDS011;6597;52.218;9.882;2023-11-18T06:02:40;44.93;;;25.73;;
13061;SDS011;6597;52.218;9.882;2023-11-18T06:05:07;42.40;;;24.83;;
13061;SDS011;6597;52.218;9.882;2023-11-18T06:07:36;38.63;;;23.90;;
13061;SDS011;6597;52.218;9.882;2023-11-18T06:10:05;38.87;;;23.30;;
13061;SDS011;6597;52.218;9.882;2023-11-18T06:12:32;42.90;;;23.93;;
13061;SDS011;6597;52.218;9.882;2023-11-18T06:15:01;44.03;;;22.97;;
13061;SDS011;6597;52.218;9.882;2023-11-18T06:17:27;47.23;;;25.10;;
13061;SDS011;6597;52.218;9.882;2023-11-18T06:19:54;45.53;;;25.87;;
13061;SDS011;6597;52.218;9.882;2023-11-18T06:22:20;44.17;;;24.67;;
13061;SDS011;6597;52.218;9.882;2023-11-18T06:24:48;40.37;;;22.73;;
13061;SDS011;6597;52.218;9.882;2023-11-18T06:27:15;50.90;;;23.57;;
13061;SDS011;6597;52.218;9.882;2023-11-18T06:29:42;44.77;;;23.23;;
13061;SDS011;6597;52.218;9.882;2023-11-18T06:32:10;48.33;;;24.37;;
13061;SDS011;6597;52.218;9.882;2023-11-18T06:34:37;46.50;;;24.90;;
13061;SDS011;6597;52.218;9.882;2023-11-18T06:37:04;48.40;;;25.83;;
13061;SDS011;6597;52.218;9.882;2023-11-18T06:39:30;42.00;;;23.67;;
13061;SDS011;6597;52.218;9.882;2023-11-18T06:42:01;46.60;;;26.03;;
13061;SDS011;6597;52.218;9.882;2023-11-18T06:44:30;44.30;;;23.53;;
13061;SDS011;6597;52.218;9.882;2023-11-18T06:46:56;41.93;;;23.03;;
13061;SDS011;6597;52.218;9.882;2023-11-18T06:49:23;44.00;;;24.00;;
13061;SDS011;6597;52.218;9.882;2023-11-18T06:51:50;41.47;;;23.00;;
13061;SDS011;6597;52.218;9.882;2023-11-18T06:54:18;38.97;;;22.93;;
13061;SDS011;6597;52.218;9.882;2023-11-18T06:56:44;42.60;;;22.27;;
13061;SDS011;6597;52.218;9.882;2023-11-18T06:59:12;42.53;;;23.83;;
13061;SDS011;6597;52.218;9.882;2023-11-18T07:01:39;36.93;;;22.23;;
13061;SDS011;6597;52.218;9.882;2023-11-18T07:04:07;40.83;;;22.57;;
13061;SDS011;6597;52.218;9.882;2023-11-18T07:06:34;35.23;;;22.17;;
13061;SDS011;6597;52.218;9.882;2023-11-18T07:09:03;35.13;;;22.60;;
13061;SDS011;6597;52.218;9.882;2023-11-18T07:11:37;44.30;;;25.53;;
13061;SDS011;6597;52.218;9.882;2023-11-18T07:14:04;38.67;;;23.27;;
13061;SDS011;6597;52.218;9.882;2023-11-18T07:16:35;40.30;;;22.97;;
13061;SDS011;6597;52.218;9.882;2023-11-18T07:19:02;48.93;;;24.63;;
13061;SDS011;6597;52.218;9.882;2023-11-18T07:21:29;44.97;;;25.23;;
13061;SDS011;6597;52.218;9.882;2023-11-18T07:23:56;54.50;;;25.53;;
13061;SDS011;6597;52.218;9.882;2023-11-18T07:26:22;47.53;;;25.87;;
13061;SDS011;6597;52.218;9.882;2023-11-18T07:28:49;54.47;;;26.83;;
13061;SDS011;6597;52.218;9.882;2023-11-18T07:31:16;51.00;;;25.97;;
13061;SDS011;6597;52.218;9.882;2023-11-18T07:33:45;49.13;;;27.17;;
13061;SDS011;6597;52.218;9.882;2023-11-18T07:36:14;53.10;;;26.37;;
13061;SDS011;6597;52.218;9.882;2023-11-18T07:38:41;48.70;;;25.33;;
13061;SDS011;6597;52.218;9.882;2023-11-18T07:41:07;54.37;;;33.17;;
13061;SDS011;6597;52.218;9.882;2023-11-18T07:43:34;54.27;;;29.30;;
13061;SDS011;6597;52.218;9.882;2023-11-18T07:46:02;52.57;;;28.03;;
13061;SDS011;6597;52.218;9.882;2023-11-18T07:48:32;57.13;;;28.33;;
13061;SDS011;6597;52.218;9.882;2023-11-18T07:51:01;41.43;;;24.30;;
13061;SDS011;6597;52.218;9.882;2023-11-18T07:53:28;48.40;;;27.37;;
13061;SDS011;6597;52.218;9.882;2023-11-18T07:55:55;43.77;;;26.93;;
13061;SDS011;6597;52.218;9.882;2023-11-18T07:58:21;53.63;;;26.30;;
13061;SDS011;6597;52.218;9.882;2023-11-18T08:00:48;44.80;;;26.03;;
13061;SDS011;6597;52.218;9.882;2023-11-18T08:03:15;45.40;;;26.53;;
13061;SDS011;6597;52.218;9.882;2023-11-18T08:05:42;58.07;;;27.47;;
13061;SDS011;6597;52.218;9.882;2023-11-18T08:08:11;45.47;;;26.20;;
13061;SDS011;6597;52.218;9.882;2023-11-18T08:10:39;50.37;;;29.30;;
13061;SDS011;6597;52.218;9.882;2023-11-18T08:13:07;51.03;;;28.73;;
13061;SDS011;6597;52.218;9.882;2023-11-18T08:15:34;49.83;;;26.80;;
13061;SDS011;6597;52.218;9.882;2023-11-18T08:18:04;54.13;;;29.43;;
13061;SDS011;6597;52.218;9.882;2023-11-18T08:20:31;54.17;;;25.40;;
13061;SDS011;6597;52.218;9.882;2023-11-18T08:22:58;48.73;;;26.70;;
13061;SDS011;6597;52.218;9.882;2023-11-18T08:25:26;41.80;;;24.83;;
13061;SDS011;6597;52.218;9.882;2023-11-18T08:27:52;88.07;;;54.10;;
13061;SDS011;6597;52.218;9.882;2023-11-18T08:30:19;53.27;;;28.63;;
13061;SDS011;6597;52.218;9.882;2023-11-18T08:32:47;50.93;;;29.50;;
13061;SDS011;6597;52.218;9.882;2023-11-18T08:35:14;46.17;;;27.87;;
13061;SDS011;6597;52.218;9.882;2023-11-18T08:37:41;43.93;;;25.47;;
13061;SDS011;6597;52.218;9.882;2023-11-18T08:40:09;45.20;;;26.40;;
13061;SDS011;6597;52.218;9.882;2023-11-18T08:42:41;41.87;;;23.70;;
13061;SDS011;6597;52.218;9.882;2023-11-18T08:45:13;73.33;;;43.27;;
13061;SDS011;6597;52.218;9.882;2023-11-18T08:47:42;48.93;;;26.37;;
13061;SDS011;6597;52.218;9.882;2023-11-18T08:50:10;50.80;;;29.60;;
13061;SDS011;6597;52.218;9.882;2023-11-18T08:52:38;65.23;;;32.90;;
13061;SDS011;6597;52.218;9.882;2023-11-18T08:55:09;49.20;;;28.70;;
13061;SDS011;6597;52.218;9.882;2023-11-18T08:57:44;50.50;;;24.07;;
13061;SDS011;6597;52.218;9.882;2023-11-18T09:00:30;42.97;;;23.43;;
13061;SDS011;6597;52.218;9.882;2023-11-18T09:03:13;44.57;;;23.73;;
13061;SDS011;6597;52.218;9.882;2023-11-18T09:05:49;38.77;;;23.63;;
13061;SDS011;6597;52.218;9.882;2023-11-18T09:08:26;41.83;;;23.00;;
13061;SDS011;6597;52.218;9.882;2023-11-18T09:10:57;42.83;;;22.93;;
13061;SDS011;6597;52.218;9.882;2023-11-18T09:13:26;41.93;;;21.97;;
13061;SDS011;6597;52.218;9.882;2023-11-18T09:15:55;47.23;;;24.90;;
13061;SDS011;6597;52.218;9.882;2023-11-18T09:18:22;39.30;;;22.13;;
13061;SDS011;6597;52.218;9.882;2023-11-18T09:20:50;32.80;;;19.90;;
13061;SDS011;6597;52.218;9.882;2023-11-18T09:23:17;33.60;;;20.83;;
13061;SDS011;6597;52.218;9.882;2023-11-18T09:25:45;39.97;;;21.13;;
13061;SDS011;6597;52.218;9.882;2023-11-18T09:28:12;43.77;;;24.87;;
13061;SDS011;6597;52.218;9.882;2023-11-18T09:30:42;36.47;;;20.33;;
13061;SDS011;6597;52.218;9.882;2023-11-18T09:33:16;39.37;;;19.13;;
13061;SDS011;6597;52.218;9.882;2023-11-18T09:35:51;38.03;;;22.60;;
13061;SDS011;6597;52.218;9.882;2023-11-18T09:38:21;35.70;;;17.90;;
13061;SDS011;6597;52.218;9.882;2023-11-18T09:40:49;37.87;;;22.03;;
13061;SDS011;6597;52.218;9.882;2023-11-18T09:43:18;36.97;;;20.43;;
13061;SDS011;6597;52.218;9.882;2023-11-18T09:45:49;45.20;;;19.50;;
13061;SDS011;6597;52.218;9.882;2023-11-18T09:48:20;31.47;;;17.50;;
13061;SDS011;6597;52.218;9.882;2023-11-18T09:50:50;40.50;;;19.47;;
13061;SDS011;6597;52.218;9.882;2023-11-18T09:53:18;40.13;;;18.83;;
13061;SDS011;6597;52.218;9.882;2023-11-18T09:55:48;34.67;;;16.70;;
13061;SDS011;6597;52.218;9.882;2023-11-18T09:58:20;28.03;;;16.13;;
13061;SDS011;6597;52.218;9.882;2023-11-18T10:00:50;29.03;;;14.90;;
13061;SDS011;6597;52.218;9.882;2023-11-18T10:03:24;26.23;;;15.63;;
13061;SDS011;6597;52.218;9.882;2023-11-18T10:05:51;31.23;;;14.80;;
13061;SDS011;6597;52.218;9.882;2023-11-18T10:08:20;20.93;;;11.73;;
13061;SDS011;6597;52.218;9.882;2023-11-18T10:10:51;17.30;;;9.13;;
13061;SDS011;6597;52.218;9.882;2023-11-18T10:13:30;11.70;;;7.90;;
13061;SDS011;6597;52.218;9.882;2023-11-18T10:16:00;12.23;;;6.40;;
13061;SDS011;6597;52.218;9.882;2023-11-18T10:18:30;16.97;;;9.27;;
13061;SDS011;6597;52.218;9.882;2023-11-18T10:21:00;13.23;;;8.93;;
13061;SDS011;6597;52.218;9.882;2023-11-18T10:23:29;9.83;;;6.63;;
13061;SDS011;6597;52.218;9.882;2023-11-18T10:25:59;9.27;;;6.40;;
13061;SDS011;6597;52.218;9.882;2023-11-18T10:28:28;11.37;;;6.33;;
13061;SDS011;6597;52.218;9.882;2023-11-18T10:30:58;12.70;;;6.00;;
13061;SDS011;6597;52.218;9.882;2023-11-18T10:33:30;10.23;;;6.83;;
13061;SDS011;6597;52.218;9.882;2023-11-18T10:35:57;13.83;;;8.10;;
13061;SDS011;6597;52.218;9.882;2023-11-18T10:38:29;11.87;;;6.57;;
13061;SDS011;6597;52.218;9.882;2023-11-18T10:40:56;13.73;;;6.37;;
13061;SDS011;6597;52.218;9.882;2023-11-18T10:43:24;10.47;;;6.17;;
13061;SDS011;6597;52.218;9.882;2023-11-18T10:45:54;14.23;;;7.10;;
13061;SDS011;6597;52.218;9.882;2023-11-18T10:48:38;14.87;;;5.90;;
13061;SDS011;6597;52.218;9.882;2023-11-18T10:51:08;18.63;;;10.03;;
13061;SDS011;6597;52.218;9.882;2023-11-18T10:53:37;12.80;;;6.43;;
13061;SDS011;6597;52.218;9.882;2023-11-18T10:56:04;12.20;;;6.47;;
13061;SDS011;6597;52.218;9.882;2023-11-18T10:58:35;19.00;;;9.70;;
13061;SDS011;6597;52.218;9.882;2023-11-18T11:01:02;13.50;;;6.93;;
13061;SDS011;6597;52.218;9.882;2023-11-18T11:03:30;14.50;;;7.87;;
13061;SDS011;6597;52.218;9.882;2023-11-18T11:06:04;14.37;;;7.93;;
13061;SDS011;6597;52.218;9.882;2023-11-18T11:08:43;13.73;;;7.97;;
13061;SDS011;6597;52.218;9.882;2023-11-18T11:11:09;15.77;;;9.53;;
13061;SDS011;6597;52.218;9.882;2023-11-18T11:13:41;11.57;;;7.40;;
13061;SDS011;6597;52.218;9.882;2023-11-18T11:16:09;12.53;;;6.27;;
13061;SDS011;6597;52.218;9.882;2023-11-18T11:18:39;9.93;;;6.03;;
13061;SDS011;6597;52.218;9.882;2023-11-18T11:21:13;11.13;;;6.40;;
13061;SDS011;6597;52.218;9.882;2023-11-18T11:23:42;9.60;;;5.90;;
13061;SDS011;6597;52.218;9.882;2023-11-18T11:26:23;10.50;;;6.10;;
13061;SDS011;6597;52.218;9.882;2023-11-18T11:29:02;11.93;;;6.30;;
13061;SDS011;6597;52.218;9.882;2023-11-18T11:31:35;12.00;;;6.57;;
13061;SDS011;6597;52.218;9.882;2023-11-18T11:34:05;13.47;;;6.87;;
13061;SDS011;6597;52.218;9.882;2023-11-18T11:36:40;11.93;;;6.30;;
13061;SDS011;6597;52.218;9.882;2023-11-18T11:39:09;11.10;;;6.23;;
13061;SDS011;6597;52.218;9.882;2023-11-18T11:41:41;10.13;;;5.77;;
13061;SDS011;6597;52.218;9.882;2023-11-18T11:44:11;8.83;;;5.70;;
13061;SDS011;6597;52.218;9.882;2023-11-18T11:46:39;10.83;;;6.43;;
13061;SDS011;6597;52.218;9.882;2023-11-18T11:49:07;9.80;;;6.00;;
13061;SDS011;6597;52.218;9.882;2023-11-18T11:51:46;11.97;;;6.60;;
13061;SDS011;6597;52.218;9.882;2023-11-18T11:54:16;11.93;;;6.63;;
13061;SDS011;6597;52.218;9.882;2023-11-18T11:56:47;11.03;;;5.80;;
13061;SDS011;6597;52.218;9.882;2023-11-18T11:59:17;10.97;;;6.33;;
13061;SDS011;6597;52.218;9.882;2023-11-18T12:01:47;14.03;;;7.33;;
13061;SDS011;6597;52.218;9.882;2023-11-18T12:04:17;16.00;;;6.83;;
13061;SDS011;6597;52.218;9.882;2023-11-18T12:06:49;8.33;;;5.97;;
13061;SDS011;6597;52.218;9.882;2023-11-18T12:09:21;9.00;;;6.17;;
13061;SDS011;6597;52.218;9.882;2023-11-18T12:11:48;10.33;;;6.80;;
13061;SDS011;6597;52.218;9.882;2023-11-18T12:14:15;11.57;;;5.23;;
13061;SDS011;6597;52.218;9.882;2023-11-18T12:16:58;8.00;;;5.43;;
13061;SDS011;6597;52.218;9.882;2023-11-18T12:19:34;8.57;;;5.83;;
13061;SDS011;6597;52.218;9.882;2023-11-18T12:22:15;8.30;;;5.20;;
13061;SDS011;6597;52.218;9.882;2023-11-18T12:24:44;11.53;;;7.03;;
13061;SDS011;6597;52.218;9.882;2023-11-18T12:27:13;12.17;;;7.60;;
13061;SDS011;6597;52.218;9.882;2023-11-18T12:29:43;12.67;;;7.00;;
13061;SDS011;6597;52.218;9.882;2023-11-18T12:32:10;10.17;;;6.07;;
13061;SDS011;6597;52.218;9.882;2023-11-18T12:34:50;11.43;;;5.60;;
13061;SDS011;6597;52.218;9.882;2023-11-18T12:37:33;9.77;;;6.37;;
13061;SDS011;6597;52.218;9.882;2023-11-18T12:40:38;11.60;;;6.43;;
13061;SDS011;6597;52.218;9.882;2023-11-18T12:43:17;16.50;;;10.40;;
13061;SDS011;6597;52.218;9.882;2023-11-18T12:46:21;11.00;;;7.30;;
13061;SDS011;6597;52.218;9.882;2023-11-18T12:49:13;8.47;;;5.37;;
13061;SDS011;6597;52.218;9.882;2023-11-18T12:51:42;10.17;;;6.40;;
13061;SDS011;6597;52.218;9.882;2023-11-18T12:54:11;10.77;;;7.00;;
13061;SDS011;6597;52.218;9.882;2023-11-18T12:56:38;11.37;;;6.53;;
13061;SDS011;6597;52.218;9.882;2023-11-18T12:59:09;15.93;;;9.37;;
13061;SDS011;6597;52.218;9.882;2023-11-18T13:01:38;14.27;;;7.33;;
13061;SDS011;6597;52.218;9.882;2023-11-18T13:04:07;12.60;;;6.17;;
13061;SDS011;6597;52.218;9.882;2023-11-18T13:06:34;10.17;;;7.23;;
13061;SDS011;6597;52.218;9.882;2023-11-18T13:09:01;13.77;;;7.60;;
13061;SDS011;6597;52.218;9.882;2023-11-18T13:11:36;9.23;;;5.90;;
13061;SDS011;6597;52.218;9.882;2023-11-18T13:14:03;7.90;;;5.63;;
13061;SDS011;6597;52.218;9.882;2023-11-18T13:16:30;9.13;;;5.60;;
13061;SDS011;6597;52.218;9.882;2023-11-18T13:18:57;7.70;;;4.90;;
13061;SDS011;6597;52.218;9.882;2023-11-18T13:21:23;7.40;;;5.30;;
13061;SDS011;6597;52.218;9.882;2023-11-18T13:23:52;8.73;;;5.17;;
13061;SDS011;6597;52.218;9.882;2023-11-18T13:26:19;9.23;;;5.77;;
13061;SDS011;6597;52.218;9.882;2023-11-18T13:28:48;12.70;;;8.07;;
13061;SDS011;6597;52.218;9.882;2023-11-18T13:31:17;13.50;;;6.60;;
13061;SDS011;6597;52.218;9.882;2023-11-18T13:33:46;7.57;;;5.33;;
13061;SDS011;6597;52.218;9.882;2023-11-18T13:36:13;8.73;;;6.17;;
13061;SDS011;6597;52.218;9.882;2023-11-18T13:38:40;13.33;;;8.10;;
13061;SDS011;6597;52.218;9.882;2023-11-18T13:41:09;12.57;;;8.97;;
13061;SDS011;6597;52.218;9.882;2023-11-18T13:43:42;10.00;;;5.63;;
13061;SDS011;6597;52.218;9.882;2023-11-18T13:46:13;9.57;;;6.07;;
13061;SDS011;6597;52.218;9.882;2023-11-18T13:48:40;6.73;;;5.00;;
13061;SDS011;6597;52.218;9.882;2023-11-18T13:51:07;7.93;;;5.83;;
13061;SDS011;6597;52.218;9.882;2023-11-18T13:53:38;10.03;;;5.97;;
13061;SDS011;6597;52.218;9.882;2023-11-18T13:56:06;8.47;;;5.30;;
13061;SDS011;6597;52.218;9.882;2023-11-18T13:58:34;7.37;;;5.33;;
13061;SDS011;6597;52.218;9.882;2023-11-18T14:01:04;8.20;;;5.40;;
13061;SDS011;6597;52.218;9.882;2023-11-18T14:03:33;10.10;;;5.47;;
13061;SDS011;6597;52.218;9.882;2023-11-18T14:06:02;10.73;;;5.30;;
13061;SDS011;6597;52.218;9.882;2023-11-18T14:08:29;8.20;;;5.20;;
13061;SDS011;6597;52.218;9.882;2023-11-18T14:10:55;9.30;;;5.10;;
13061;SDS011;6597;52.218;9.882;2023-11-18T14:13:22;10.73;;;5.23;;
13061;SDS011;6597;52.218;9.882;2023-11-18T14:15:48;8.53;;;4.80;;
13061;SDS011;6597;52.218;9.882;2023-11-18T14:18:20;8.27;;;4.80;;
13061;SDS011;6597;52.218;9.882;2023-11-18T14:20:49;7.07;;;5.03;;
13061;SDS011;6597;52.218;9.882;2023-11-18T14:23:15;7.17;;;5.03;;
13061;SDS011;6597;52.218;9.882;2023-11-18T14:25:43;6.90;;;5.37;;
13061;SDS011;6597;52.218;9.882;2023-11-18T14:28:10;7.80;;;5.37;;
13061;SDS011;6597;52.218;9.882;2023-11-18T14:30:38;9.63;;;7.20;;
13061;SDS011;6597;52.218;9.882;2023-11-18T14:33:05;24.50;;;16.17;;
13061;SDS011;6597;52.218;9.882;2023-11-18T14:35:32;24.43;;;14.33;;
13061;SDS011;6597;52.218;9.882;2023-11-18T14:38:00;14.27;;;9.10;;
13061;SDS011;6597;52.218;9.882;2023-11-18T14:40:27;11.53;;;6.10;;
13061;SDS011;6597;52.218;9.882;2023-11-18T14:42:54;16.13;;;9.87;;
13061;SDS011;6597;52.218;9.882;2023-11-18T14:45:21;20.70;;;11.97;;
13061;SDS011;6597;52.218;9.882;2023-11-18T14:47:48;18.93;;;12.30;;
13061;SDS011;6597;52.218;9.882;2023-11-18T14:50:18;14.23;;;9.30;;